Time;durP1;ratioP1;P1;durP2;ratioP2;P2;SDS_P1;SDS_P2;PMS_P1;PMS_P2;Temp;Humidity;BMP_temperature;BMP_pressure;BME280_temperature;BME280_humidity;BME280_pressure;Samples;Min_cycle;Max_cycle;Signal;HPM_P1;HPM_P2
2023/10/03 00:00:51;;;;;;;28.48;14.27;;;;;;;;;;5072067;28;20050;-38
2023/10/03 00:03:17;;;;;;;27.90;14.15;;;;;;;;;;5068822;28;20043;-39
2023/10/03 00:05:45;;;;;;;30.65;16.40;;;;;;;;;;5076683;28;20158;-38
2023/10/03 00:08:10;;;;;;;34.80;16.23;;;;;;;;;;5077987;28;20056;-38
2023/10/03 00:10:38;;;;;;;32.28;16.50;;;;;;;;;;5074325;28;20120;-39
2023/10/03 00:13:07;;;;;;;28.48;14.23;;;;;;;;;;5078788;28;20051;-39
2023/10/03 00:15:32;;;;;;;32.20;13.68;;;;;;;;;;5077352;28;20073;-39
2023/10/03 00:17:58;;;;;;;29.58;14.13;;;;;;;;;;5074891;28;20021;-38
2023/10/03 00:20:23;;;;;;;29.30;14.55;;;;;;;;;;5070121;28;20035;-39
2023/10/03 00:22:49;;;;;;;24.83;12.40;;;;;;;;;;5074028;28;20490;-38
2023/10/03 00:25:24;;;;;;;22.83;12.20;;;;;;;;;;5078140;28;20027;-39
2023/10/03 00:27:59;;;;;;;24.60;12.50;;;;;;;;;;5074517;28;20043;-38
2023/10/03 00:30:24;;;;;;;15.43;7.65;;;;;;;;;;5074206;28;20039;-39
2023/10/03 00:32:51;;;;;;;25.60;11.55;;;;;;;;;;5075953;28;20403;-38
2023/10/03 00:35:17;;;;;;;25.30;11.40;;;;;;;;;;5076406;28;20386;-39
2023/10/03 00:37:46;;;;;;;25.77;11.27;;;;;;;;;;5069380;28;20037;-38
2023/10/03 00:40:18;;;;;;;24.35;11.60;;;;;;;;;;5077931;28;20891;-38
2023/10/03 00:42:43;;;;;;;;;;;;;;;;;;5078322;28;20020;-38
2023/10/03 00:45:10;;;;;;;26.17;10.90;;;;;;;;;;5073982;28;19915;-38
2023/10/03 00:47:35;;;;;;;26.50;11.55;;;;;;;;;;5074435;28;20406;-38
2023/10/03 00:50:01;;;;;;;21.75;9.88;;;;;;;;;;5077388;28;20674;-38
2023/10/03 00:52:26;;;;;;;21.77;11.45;;;;;;;;;;5075545;28;20062;-39
2023/10/03 00:54:51;;;;;;;21.37;11.33;;;;;;;;;;5067975;28;20426;-39
2023/10/03 00:57:16;;;;;;;24.75;10.90;;;;;;;;;;5073777;28;20416;-39
2023/10/03 00:59:42;;;;;;;19.63;10.27;;;;;;;;;;5076262;28;20103;-38
2023/10/03 01:02:07;;;;;;;25.08;11.02;;;;;;;;;;5071584;28;20042;-38
2023/10/03 01:04:34;;;;;;;21.87;10.60;;;;;;;;;;5075776;28;20073;-38
2023/10/03 01:07:00;;;;;;;21.63;10.30;;;;;;;;;;5073264;28;20270;-39
2023/10/03 01:09:28;;;;;;;26.73;10.60;;;;;;;;;;5076741;28;20024;-38
2023/10/03 01:11:53;;;;;;;19.33;10.93;;;;;;;;;;5073695;28;20020;-38
2023/10/03 01:14:19;;;;;;;24.52;11.02;;;;;;;;;;5075273;28;20031;-38
2023/10/03 01:16:45;;;;;;;21.85;10.75;;;;;;;;;;5076846;28;20052;-38
2023/10/03 01:19:29;;;;;;;22.75;10.75;;;;;;;;;;5072549;28;20028;-38
2023/10/03 01:21:54;;;;;;;19.30;9.55;;;;;;;;;;5071239;28;20578;-38
2023/10/03 01:24:26;;;;;;;21.50;9.43;;;;;;;;;;5072248;28;20054;-38
2023/10/03 01:26:54;;;;;;;18.88;9.82;;;;;;;;;;5067667;28;20395;-38
2023/10/03 01:29:20;;;;;;;19.90;9.57;;;;;;;;;;5073737;28;20055;-38
2023/10/03 01:31:46;;;;;;;19.55;8.95;;;;;;;;;;5073711;28;20064;-38
2023/10/03 01:34:11;;;;;;;20.17;8.48;;;;;;;;;;5074220;28;20069;-38
2023/10/03 01:36:37;;;;;;;20.15;8.48;;;;;;;;;;5071105;28;20024;-39
2023/10/03 01:39:03;;;;;;;20.48;8.63;;;;;;;;;;5071994;28;20024;-39
2023/10/03 01:41:28;;;;;;;18.23;8.35;;;;;;;;;;5074867;28;20024;-38
2023/10/03 01:43:53;;;;;;;21.70;9.23;;;;;;;;;;5071356;28;20032;-38
2023/10/03 01:46:18;;;;;;;19.23;8.93;;;;;;;;;;5075378;28;20028;-38
2023/10/03 01:48:44;;;;;;;20.73;9.03;;;;;;;;;;5074389;28;20111;-39
2023/10/03 01:51:09;;;;;;;16.83;7.43;;;;;;;;;;5073871;28;20028;-38
2023/10/03 01:53:35;;;;;;;19.05;8.95;;;;;;;;;;5063846;28;20119;-38
2023/10/03 01:56:00;;;;;;;19.30;8.13;;;;;;;;;;5072788;28;20028;-38
2023/10/03 01:58:26;;;;;;;17.15;7.90;;;;;;;;;;5071447;28;20067;-38
2023/10/03 02:00:51;;;;;;;16.27;8.05;;;;;;;;;;5074420;28;20387;-38
2023/10/03 02:03:18;;;;;;;15.80;8.13;;;;;;;;;;5074552;28;20028;-38
2023/10/03 02:05:44;;;;;;;21.58;8.07;;;;;;;;;;5072618;28;20032;-38
2023/10/03 02:08:16;;;;;;;18.08;8.00;;;;;;;;;;5072206;28;20021;-38
2023/10/03 02:10:43;;;;;;;20.35;8.40;;;;;;;;;;5071483;28;20124;-38
2023/10/03 02:13:14;;;;;;;17.60;8.73;;;;;;;;;;5073821;28;20036;-38
2023/10/03 02:15:40;;;;;;;20.00;8.40;;;;;;;;;;5074892;28;20024;-38
2023/10/03 02:18:05;;;;;;;16.70;7.82;;;;;;;;;;5076146;28;20024;-38
2023/10/03 02:20:38;;;;;;;19.33;7.22;;;;;;;;;;5063969;28;20501;-38
2023/10/03 02:23:05;;;;;;;16.70;8.13;;;;;;;;;;5071188;28;20016;-38
2023/10/03 02:25:36;;;;;;;16.00;8.00;;;;;;;;;;5068934;28;20042;-39
2023/10/03 02:28:02;;;;;;;17.47;7.50;;;;;;;;;;5074367;28;20036;-38
2023/10/03 02:30:29;;;;;;;17.02;7.72;;;;;;;;;;5072557;28;20070;-38
2023/10/03 02:32:54;;;;;;;16.60;7.80;;;;;;;;;;5074045;28;20099;-38
2023/10/03 02:35:22;;;;;;;15.43;7.03;;;;;;;;;;5074633;28;20104;-38
2023/10/03 02:37:47;;;;;;;15.90;7.88;;;;;;;;;;5066168;28;20103;-38
2023/10/03 02:40:14;;;;;;;14.70;7.93;;;;;;;;;;5070369;28;20443;-38
2023/10/03 02:42:40;;;;;;;17.77;7.53;;;;;;;;;;5068908;28;20035;-39
2023/10/03 02:45:06;;;;;;;18.02;6.38;;;;;;;;;;5070780;28;20479;-38
2023/10/03 02:47:32;;;;;;;17.48;8.10;;;;;;;;;;5069055;28;20045;-39
2023/10/03 02:49:58;;;;;;;17.73;8.02;;;;;;;;;;5074427;28;20033;-38
2023/10/03 02:52:24;;;;;;;17.25;7.57;;;;;;;;;;5070014;28;20391;-38
2023/10/03 02:54:49;;;;;;;32.22;10.48;;;;;;;;;;5072889;28;20517;-38
2023/10/03 02:57:15;;;;;;;15.82;7.55;;;;;;;;;;5073627;28;20025;-38
2023/10/03 02:59:44;;;;;;;14.93;7.28;;;;;;;;;;5072875;28;20496;-38
2023/10/03 03:02:11;;;;;;;20.77;7.63;;;;;;;;;;5068132;28;20032;-38
2023/10/03 03:04:36;;;;;;;20.58;7.13;;;;;;;;;;5070169;28;20023;-38
2023/10/03 03:07:04;;;;;;;15.75;8.10;;;;;;;;;;5071074;28;20032;-39
2023/10/03 03:09:36;;;;;;;16.42;7.45;;;;;;;;;;5076451;28;20025;-38
2023/10/03 03:12:01;;;;;;;14.68;7.50;;;;;;;;;;5073318;28;20038;-38
2023/10/03 03:14:27;;;;;;;16.73;6.93;;;;;;;;;;5074446;28;20028;-38
2023/10/03 03:16:53;;;;;;;19.25;6.05;;;;;;;;;;5066287;28;20407;-38
2023/10/03 03:19:18;;;;;;;13.77;5.90;;;;;;;;;;5071909;28;20020;-38
2023/10/03 03:21:44;;;;;;;12.43;6.53;;;;;;;;;;5074066;28;20025;-38
2023/10/03 03:24:10;;;;;;;13.57;6.43;;;;;;;;;;5073441;28;20032;-38
2023/10/03 03:26:36;;;;;;;14.35;6.28;;;;;;;;;;5062759;28;20241;-38
2023/10/03 03:29:05;;;;;;;11.25;5.97;;;;;;;;;;5070322;28;20027;-39
2023/10/03 03:31:33;;;;;;;14.00;6.65;;;;;;;;;;5066470;28;20046;-38
2023/10/03 03:34:00;;;;;;;12.20;6.78;;;;;;;;;;5079310;28;20051;-38
2023/10/03 03:36:35;;;;;;;20.40;6.60;;;;;;;;;;5070706;28;20024;-38
2023/10/03 03:39:14;;;;;;;16.38;7.22;;;;;;;;;;5077465;28;20020;-39
2023/10/03 03:41:39;;;;;;;17.17;7.40;;;;;;;;;;5073836;28;20021;-39
2023/10/03 03:44:11;;;;;;;17.15;7.22;;;;;;;;;;5078996;28;20020;-39
2023/10/03 03:46:37;;;;;;;16.20;7.45;;;;;;;;;;5076823;28;20040;-38
2023/10/03 03:49:04;;;;;;;15.15;7.07;;;;;;;;;;5083508;28;20020;-38
2023/10/03 03:51:30;;;;;;;17.42;7.28;;;;;;;;;;5076976;28;20112;-38
2023/10/03 03:53:55;;;;;;;15.02;6.85;;;;;;;;;;5078844;28;20054;-38
2023/10/03 03:56:21;;;;;;;14.55;6.43;;;;;;;;;;5081972;28;20113;-38
2023/10/03 03:58:48;;;;;;;12.75;6.70;;;;;;;;;;5072627;28;20044;-38
2023/10/03 04:01:19;;;;;;;17.25;6.63;;;;;;;;;;5077736;28;20066;-38
2023/10/03 04:03:45;;;;;;;14.40;6.32;;;;;;;;;;5075229;28;20017;-38
2023/10/03 04:06:11;;;;;;;14.82;6.82;;;;;;;;;;5077658;28;20032;-38
2023/10/03 04:08:38;;;;;;;19.17;7.03;;;;;;;;;;5070797;28;20525;-39
2023/10/03 04:11:05;;;;;;;14.18;6.32;;;;;;;;;;5073182;28;20020;-38
2023/10/03 04:13:33;;;;;;;16.13;6.70;;;;;;;;;;5075308;28;20126;-38
2023/10/03 04:16:01;;;;;;;13.63;6.18;;;;;;;;;;5075296;28;20028;-39
2023/10/03 04:18:26;;;;;;;14.27;6.72;;;;;;;;;;5080438;28;20036;-38
2023/10/03 04:20:53;;;;;;;12.25;6.15;;;;;;;;;;5072333;28;20052;-38
2023/10/03 04:23:18;;;;;;;13.43;6.22;;;;;;;;;;5071561;28;20479;-38
2023/10/03 04:25:44;;;;;;;14.30;6.07;;;;;;;;;;5074675;28;20020;-38
2023/10/03 04:28:11;;;;;;;13.13;6.28;;;;;;;;;;5076872;28;20016;-39
2023/10/03 04:30:39;;;;;;;14.43;6.80;;;;;;;;;;5076577;28;20060;-38
2023/10/03 04:33:05;;;;;;;15.82;6.53;;;;;;;;;;5074634;28;20043;-38
2023/10/03 04:35:30;;;;;;;15.88;7.05;;;;;;;;;;5073640;28;20028;-38
2023/10/03 04:37:57;;;;;;;16.15;6.53;;;;;;;;;;5074123;28;20546;-38
2023/10/03 04:40:27;;;;;;;18.08;6.57;;;;;;;;;;5074002;28;20245;-38
2023/10/03 04:42:53;;;;;;;16.67;7.00;;;;;;;;;;5074545;28;20139;-38
2023/10/03 04:45:19;;;;;;;14.60;6.30;;;;;;;;;;5075950;28;20100;-38
2023/10/03 04:47:46;;;;;;;13.52;6.00;;;;;;;;;;5073878;28;20063;-38
2023/10/03 04:50:12;;;;;;;14.30;5.97;;;;;;;;;;5073411;28;20081;-38
2023/10/03 04:52:38;;;;;;;21.65;6.43;;;;;;;;;;5074810;28;20021;-38
2023/10/03 04:55:03;;;;;;;12.75;6.03;;;;;;;;;;5075657;28;20028;-38
2023/10/03 04:57:29;;;;;;;13.85;5.60;;;;;;;;;;5079738;28;20085;-38
2023/10/03 04:59:59;;;;;;;15.52;6.15;;;;;;;;;;5076463;28;20458;-38
2023/10/03 05:02:24;;;;;;;13.20;6.53;;;;;;;;;;5075368;28;20019;-38
2023/10/03 05:04:49;;;;;;;15.38;6.68;;;;;;;;;;5075024;28;20028;-38
2023/10/03 05:07:15;;;;;;;15.77;5.78;;;;;;;;;;5075982;28;20552;-38
2023/10/03 05:09:40;;;;;;;16.42;6.72;;;;;;;;;;5073728;28;21373;-38
2023/10/03 05:12:06;;;;;;;16.90;6.43;;;;;;;;;;5078005;28;20035;-38
2023/10/03 05:14:31;;;;;;;16.53;7.47;;;;;;;;;;5080608;28;20032;-38
2023/10/03 05:17:00;;;;;;;20.63;7.68;;;;;;;;;;5079661;28;20679;-38
2023/10/03 05:19:25;;;;;;;16.42;6.80;;;;;;;;;;5077231;28;20066;-39
2023/10/03 05:21:50;;;;;;;20.75;7.60;;;;;;;;;;5072841;28;20448;-38
2023/10/03 05:24:16;;;;;;;21.27;7.87;;;;;;;;;;5079048;28;20039;-38
2023/10/03 05:26:41;;;;;;;19.92;7.97;;;;;;;;;;5078831;28;20036;-39
2023/10/03 05:29:07;;;;;;;17.35;7.35;;;;;;;;;;5076033;28;20486;-38
2023/10/03 05:31:34;;;;;;;15.98;7.18;;;;;;;;;;5072876;28;20440;-38
2023/10/03 05:33:59;;;;;;;19.98;6.35;;;;;;;;;;5079210;28;20028;-38
2023/10/03 05:36:25;;;;;;;14.67;6.60;;;;;;;;;;5074777;28;20023;-38
2023/10/03 05:38:50;;;;;;;18.47;6.80;;;;;;;;;;5072236;28;20294;-38
2023/10/03 05:41:23;;;;;;;22.07;7.53;;;;;;;;;;5077055;28;20047;-38
2023/10/03 05:43:48;;;;;;;18.02;7.57;;;;;;;;;;5078867;28;20032;-38
2023/10/03 05:46:13;;;;;;;21.02;8.00;;;;;;;;;;5069039;28;20036;-38
2023/10/03 05:48:39;;;;;;;19.00;9.20;;;;;;;;;;5077114;28;20036;-38
2023/10/03 05:51:05;;;;;;;30.97;11.60;;;;;;;;;;5072972;28;20055;-38
2023/10/03 05:53:30;;;;;;;22.00;8.57;;;;;;;;;;5075712;28;20278;-38
2023/10/03 05:55:56;;;;;;;23.30;10.80;;;;;;;;;;5069291;28;20023;-38
2023/10/03 05:58:22;;;;;;;23.75;10.05;;;;;;;;;;5077541;28;20043;-38
2023/10/03 06:00:49;;;;;;;21.15;7.97;;;;;;;;;;5074282;28;20016;-38
2023/10/03 06:03:14;;;;;;;25.33;12.05;;;;;;;;;;5073979;28;20019;-39
2023/10/03 06:05:39;;;;;;;30.77;13.98;;;;;;;;;;5070344;28;20051;-38
2023/10/03 06:08:05;;;;;;;25.83;11.40;;;;;;;;;;5073377;28;20066;-38
2023/10/03 06:10:32;;;;;;;20.17;9.98;;;;;;;;;;5075787;28;20041;-38
2023/10/03 06:12:57;;;;;;;17.60;8.00;;;;;;;;;;5077261;28;20463;-38
2023/10/03 06:15:23;;;;;;;23.88;9.38;;;;;;;;;;5076460;28;20046;-38
2023/10/03 06:17:49;;;;;;;22.58;9.52;;;;;;;;;;5069635;28;20427;-38
2023/10/03 06:20:14;;;;;;;22.02;7.82;;;;;;;;;;5068763;28;20064;-38
2023/10/03 06:22:40;;;;;;;23.50;9.05;;;;;;;;;;5072294;28;20430;-38
2023/10/03 06:25:07;;;;;;;20.58;10.50;;;;;;;;;;5075812;28;20384;-38
2023/10/03 06:27:32;;;;;;;22.70;9.40;;;;;;;;;;5073822;28;20041;-38
2023/10/03 06:29:57;;;;;;;20.43;9.73;;;;;;;;;;5071649;28;20059;-38
2023/10/03 06:32:23;;;;;;;21.95;8.52;;;;;;;;;;5073130;28;20285;-38
2023/10/03 06:34:48;;;;;;;25.67;10.13;;;;;;;;;;5071402;28;20040;-38
2023/10/03 06:37:14;;;;;;;19.08;7.75;;;;;;;;;;5073770;28;20451;-38
2023/10/03 06:39:41;;;;;;;21.07;8.00;;;;;;;;;;5074935;28;20055;-38
2023/10/03 06:42:07;;;;;;;23.85;9.20;;;;;;;;;;5072847;28;20271;-39
2023/10/03 06:44:32;;;;;;;26.08;10.32;;;;;;;;;;5076615;28;20037;-38
2023/10/03 06:46:58;;;;;;;26.17;8.38;;;;;;;;;;5070230;28;20657;-38
2023/10/03 06:49:23;;;;;;;22.60;8.37;;;;;;;;;;5074671;28;21263;-39
2023/10/03 06:51:50;;;;;;;20.77;7.87;;;;;;;;;;5075109;28;20274;-38
2023/10/03 06:54:16;;;;;;;22.90;7.78;;;;;;;;;;5072526;28;20385;-38
2023/10/03 06:56:41;;;;;;;25.70;8.05;;;;;;;;;;5074213;28;20197;-38
2023/10/03 06:59:10;;;;;;;25.40;9.40;;;;;;;;;;5074193;28;20032;-38
2023/10/03 07:01:36;;;;;;;13.80;5.30;;;;;;;;;;5071152;28;20274;-38
2023/10/03 07:04:02;;;;;;;26.17;9.05;;;;;;;;;;5068451;28;20705;-38
2023/10/03 07:06:28;;;;;;;19.63;7.03;;;;;;;;;;5070523;28;20495;-39
2023/10/03 07:08:53;;;;;;;23.80;7.43;;;;;;;;;;5071026;28;20368;-39
2023/10/03 07:11:18;;;;;;;25.42;7.82;;;;;;;;;;5073077;28;20089;-38
2023/10/03 07:13:44;;;;;;;21.88;9.40;;;;;;;;;;5070149;28;20032;-38
2023/10/03 07:16:09;;;;;;;19.63;6.57;;;;;;;;;;5065060;28;20136;-38
2023/10/03 07:18:35;;;;;;;18.13;6.67;;;;;;;;;;5073112;28;20020;-38
2023/10/03 07:21:00;;;;;;;21.58;7.88;;;;;;;;;;5077616;28;20292;-38
2023/10/03 07:23:26;;;;;;;19.27;7.40;;;;;;;;;;5081953;28;20410;-38
2023/10/03 07:25:51;;;;;;;18.00;6.67;;;;;;;;;;5074908;28;20490;-38
2023/10/03 07:28:17;;;;;;;25.88;8.80;;;;;;;;;;5080492;28;20353;-39
2023/10/03 07:30:42;;;;;;;11.68;5.15;;;;;;;;;;5078186;28;20028;-38
2023/10/03 07:33:08;;;;;;;19.33;7.50;;;;;;;;;;5073325;28;20115;-38
2023/10/03 07:35:37;;;;;;;20.40;7.50;;;;;;;;;;5075464;28;20059;-38
2023/10/03 07:38:02;;;;;;;23.00;7.10;;;;;;;;;;5073772;28;20106;-38
2023/10/03 07:40:28;;;;;;;22.60;7.57;;;;;;;;;;5077911;28;20107;-38
2023/10/03 07:42:53;;;;;;;23.67;7.55;;;;;;;;;;5072130;28;20055;-38
2023/10/03 07:45:18;;;;;;;22.35;7.18;;;;;;;;;;5075236;28;20025;-38
2023/10/03 07:47:44;;;;;;;22.23;8.40;;;;;;;;;;5077460;28;20029;-38
2023/10/03 07:50:11;;;;;;;23.92;7.88;;;;;;;;;;5081890;28;20037;-38
2023/10/03 07:52:37;;;;;;;23.00;7.97;;;;;;;;;;5069199;28;20095;-38
2023/10/03 07:55:03;;;;;;;19.63;7.57;;;;;;;;;;5076368;28;20077;-38
2023/10/03 07:57:30;;;;;;;19.05;8.05;;;;;;;;;;5076310;28;20028;-38
2023/10/03 07:59:55;;;;;;;25.92;8.00;;;;;;;;;;5077026;28;20044;-38
2023/10/03 08:02:26;;;;;;;29.40;10.07;;;;;;;;;;5074862;28;20101;-38
2023/10/03 08:04:52;;;;;;;21.33;7.35;;;;;;;;;;5073811;28;20286;-39
2023/10/03 08:07:23;;;;;;;23.30;7.78;;;;;;;;;;5074162;28;20497;-38
2023/10/03 08:09:49;;;;;;;20.02;7.55;;;;;;;;;;5071102;28;20016;-39
2023/10/03 08:12:22;;;;;;;23.55;7.88;;;;;;;;;;5076148;28;20034;-39
2023/10/03 08:14:51;;;;;;;19.92;7.82;;;;;;;;;;5064078;28;20035;-39
2023/10/03 08:17:17;;;;;;;21.45;7.95;;;;;;;;;;5072751;28;20019;-38
2023/10/03 08:19:45;;;;;;;12.52;4.55;;;;;;;;;;5075136;28;20008;-38
2023/10/03 08:22:12;;;;;;;22.02;8.68;;;;;;;;;;5076361;28;20970;-39
2023/10/03 08:24:43;;;;;;;23.50;8.77;;;;;;;;;;5072855;28;20055;-38
2023/10/03 08:27:18;;;;;;;25.40;8.25;;;;;;;;;;5078142;28;20390;-38
2023/10/03 08:29:43;;;;;;;23.83;7.80;;;;;;;;;;5072345;28;20457;-39
2023/10/03 08:32:09;;;;;;;20.95;7.90;;;;;;;;;;5075195;28;20108;-38
2023/10/03 08:34:43;;;;;;;23.98;8.13;;;;;;;;;;5075130;28;21063;-39
2023/10/03 08:37:09;;;;;;;22.85;8.57;;;;;;;;;;5076231;28;20107;-39
2023/10/03 08:39:34;;;;;;;23.42;8.55;;;;;;;;;;5074152;28;20111;-39
2023/10/03 08:42:35;;;;;;;22.77;8.60;;;;;;;;;;5073265;28;20017;-39
2023/10/03 08:45:16;;;;;;;27.00;9.32;;;;;;;;;;5032874;28;20032;-39
2023/10/03 08:47:47;;;;;;;24.10;9.02;;;;;;;;;;5057308;28;20035;-39
2023/10/03 08:50:14;;;;;;;24.55;8.27;;;;;;;;;;5075798;28;20039;-39
2023/10/03 08:52:44;;;;;;;25.08;7.03;;;;;;;;;;5077766;28;20399;-39
2023/10/03 08:55:09;;;;;;;24.00;8.68;;;;;;;;;;5069685;28;20020;-39
2023/10/03 08:57:35;;;;;;;25.38;9.73;;;;;;;;;;5070997;28;20162;-39
2023/10/03 09:00:03;;;;;;;23.00;9.82;;;;;;;;;;5075324;28;20099;-39
2023/10/03 09:02:30;;;;;;;29.15;9.60;;;;;;;;;;5073824;28;20077;-39
2023/10/03 09:04:56;;;;;;;30.77;9.80;;;;;;;;;;5074420;28;20036;-39
2023/10/03 09:07:23;;;;;;;29.65;9.30;;;;;;;;;;5075452;28;20036;-39
2023/10/03 09:09:49;;;;;;;29.45;8.70;;;;;;;;;;5074548;28;20032;-39
2023/10/03 09:12:15;;;;;;;26.83;10.57;;;;;;;;;;5078552;28;20491;-39
2023/10/03 09:14:40;;;;;;;26.95;10.02;;;;;;;;;;5075206;28;20166;-39
2023/10/03 09:17:06;;;;;;;25.98;9.48;;;;;;;;;;5073785;28;20116;-39
2023/10/03 09:19:44;;;;;;;28.50;9.82;;;;;;;;;;5073215;28;20111;-39
2023/10/03 09:22:10;;;;;;;25.33;9.18;;;;;;;;;;5075833;28;20057;-39
2023/10/03 09:24:43;;;;;;;27.92;9.98;;;;;;;;;;5077619;28;20719;-39
2023/10/03 09:27:09;;;;;;;31.05;9.98;;;;;;;;;;5074112;28;20094;-39
2023/10/03 09:29:34;;;;;;;27.55;9.30;;;;;;;;;;5069750;28;20020;-39
2023/10/03 09:32:12;;;;;;;29.10;8.98;;;;;;;;;;5079494;28;20424;-39
2023/10/03 09:34:40;;;;;;;24.75;9.30;;;;;;;;;;5072621;28;20046;-39
2023/10/03 09:37:06;;;;;;;38.47;11.73;;;;;;;;;;5072306;28;20024;-39
2023/10/03 09:39:39;;;;;;;26.85;9.20;;;;;;;;;;5073339;28;20414;-39
2023/10/03 09:42:07;;;;;;;25.13;9.25;;;;;;;;;;5066721;28;20073;-39
2023/10/03 09:44:33;;;;;;;30.50;10.32;;;;;;;;;;5078272;28;20046;-39
2023/10/03 09:47:00;;;;;;;29.10;10.00;;;;;;;;;;5074832;28;20115;-39
2023/10/03 09:49:36;;;;;;;28.23;9.70;;;;;;;;;;5074640;28;20055;-39
2023/10/03 09:52:03;;;;;;;30.92;11.55;;;;;;;;;;5074517;28;20678;-39
2023/10/03 09:54:31;;;;;;;31.98;9.00;;;;;;;;;;5077807;28;20039;-39
2023/10/03 09:56:57;;;;;;;30.60;9.80;;;;;;;;;;5076795;28;20600;-39
2023/10/03 09:59:26;;;;;;;29.75;9.73;;;;;;;;;;5071770;28;20546;-39
2023/10/03 10:01:55;;;;;;;27.88;10.48;;;;;;;;;;5075212;28;20062;-39
2023/10/03 10:04:22;;;;;;;34.17;9.75;;;;;;;;;;5072905;28;20027;-39
2023/10/03 10:06:51;;;;;;;30.20;11.05;;;;;;;;;;5074507;28;20111;-39
2023/10/03 10:09:27;;;;;;;31.90;10.82;;;;;;;;;;5070956;28;20117;-39
2023/10/03 10:12:12;;;;;;;25.52;9.35;;;;;;;;;;5076270;28;20042;-39
2023/10/03 10:14:56;;;;;;;23.63;9.82;;;;;;;;;;5075161;28;20422;-39
2023/10/03 10:17:21;;;;;;;30.67;9.77;;;;;;;;;;5070737;28;20039;-40
2023/10/03 10:20:05;;;;;;;24.77;9.20;;;;;;;;;;5073546;28;20401;-39
2023/10/03 10:22:49;;;;;;;26.73;9.40;;;;;;;;;;5076240;28;20169;-39
2023/10/03 10:25:27;;;;;;;26.92;9.73;;;;;;;;;;5075722;28;20024;-39
2023/10/03 10:28:02;;;;;;;30.35;9.88;;;;;;;;;;5071994;28;20104;-39
2023/10/03 10:30:27;;;;;;;28.70;10.27;;;;;;;;;;5074815;28;20027;-39
2023/10/03 10:33:11;;;;;;;29.13;9.68;;;;;;;;;;5071935;28;20039;-39
2023/10/03 10:35:55;;;;;;;32.75;10.25;;;;;;;;;;5075427;28;20035;-39
2023/10/03 10:38:22;;;;;;;27.25;10.48;;;;;;;;;;5076120;28;20013;-39
2023/10/03 10:41:06;;;;;;;25.58;9.15;;;;;;;;;;5071779;28;20094;-39
2023/10/03 10:43:34;;;;;;;31.65;12.35;;;;;;;;;;5079640;28;20019;-39
2023/10/03 10:46:18;;;;;;;29.58;10.00;;;;;;;;;;5077484;28;20020;-39
2023/10/03 10:48:46;;;;;;;26.33;9.75;;;;;;;;;;5075082;28;20055;-39
2023/10/03 10:51:12;;;;;;;26.23;10.13;;;;;;;;;;5075489;28;20394;-39
2023/10/03 10:53:43;;;;;;;29.27;8.93;;;;;;;;;;5080204;28;20032;-39
2023/10/03 10:56:11;;;;;;;33.20;10.65;;;;;;;;;;5083896;28;20043;-39
2023/10/03 10:58:46;;;;;;;25.65;9.63;;;;;;;;;;5075172;28;20516;-39
2023/10/03 11:01:13;;;;;;;26.88;8.65;;;;;;;;;;5083027;28;20154;-39
2023/10/03 11:03:38;;;;;;;25.73;9.48;;;;;;;;;;5080443;28;20063;-39
2023/10/03 11:06:12;;;;;;;24.97;10.07;;;;;;;;;;5077781;28;20091;-39
2023/10/03 11:08:47;;;;;;;25.20;9.88;;;;;;;;;;5078020;28;20523;-39
2023/10/03 11:11:13;;;;;;;28.83;9.35;;;;;;;;;;5081036;28;20044;-39
2023/10/03 11:13:46;;;;;;;17.30;6.75;;;;;;;;;;5079049;28;20032;-39
2023/10/03 11:16:11;;;;;;;26.38;8.88;;;;;;;;;;5080267;28;20032;-39
2023/10/03 11:18:37;;;;;;;26.40;9.20;;;;;;;;;;5074072;28;20035;-39
2023/10/03 11:21:03;;;;;;;27.98;9.30;;;;;;;;;;5075685;28;20401;-39
2023/10/03 11:23:29;;;;;;;28.75;10.23;;;;;;;;;;5074317;28;20024;-39
2023/10/03 11:25:54;;;;;;;36.30;9.57;;;;;;;;;;5078144;28;20028;-39
2023/10/03 11:28:19;;;;;;;26.37;9.10;;;;;;;;;;5080690;28;20282;-39
2023/10/03 11:30:44;;;;;;;32.55;8.75;;;;;;;;;;5072781;28;20293;-39
2023/10/03 11:33:10;;;;;;;25.33;9.13;;;;;;;;;;5069149;28;20032;-39
2023/10/03 11:35:35;;;;;;;26.30;9.63;;;;;;;;;;5074437;28;20438;-39
2023/10/03 11:38:05;;;;;;;29.20;8.40;;;;;;;;;;5071279;28;20033;-39
2023/10/03 11:40:31;;;;;;;30.00;10.02;;;;;;;;;;5075424;28;20017;-39
2023/10/03 11:43:02;;;;;;;25.15;8.98;;;;;;;;;;5073538;28;20509;-39
2023/10/03 11:45:29;;;;;;;24.48;9.63;;;;;;;;;;5077502;28;20035;-39
2023/10/03 11:47:58;;;;;;;29.83;8.75;;;;;;;;;;5076639;28;20035;-39
2023/10/03 11:50:25;;;;;;;26.83;9.23;;;;;;;;;;5073901;28;20032;-39
2023/10/03 11:52:50;;;;;;;23.30;9.82;;;;;;;;;;5076937;28;20032;-39
2023/10/03 11:55:15;;;;;;;23.87;8.47;;;;;;;;;;5078817;28;20025;-39
2023/10/03 11:57:42;;;;;;;24.70;9.10;;;;;;;;;;5074151;28;20285;-39
2023/10/03 12:00:14;;;;;;;22.88;8.10;;;;;;;;;;5069428;28;20084;-39
2023/10/03 12:02:40;;;;;;;22.50;8.60;;;;;;;;;;5078681;28;20091;-39
2023/10/03 12:05:06;;;;;;;33.38;10.10;;;;;;;;;;5072764;28;20120;-39
2023/10/03 12:07:31;;;;;;;32.10;9.57;;;;;;;;;;5075487;28;20086;-39
2023/10/03 12:09:59;;;;;;;27.37;9.80;;;;;;;;;;5078996;28;20020;-39
2023/10/03 12:12:26;;;;;;;21.63;8.18;;;;;;;;;;5075105;28;20283;-39
2023/10/03 12:14:51;;;;;;;22.10;8.65;;;;;;;;;;5076406;28;20417;-39
2023/10/03 12:17:17;;;;;;;23.80;7.67;;;;;;;;;;5076524;28;20024;-39
2023/10/03 12:19:42;;;;;;;23.50;7.75;;;;;;;;;;5069132;28;20060;-39
2023/10/03 12:22:08;;;;;;;19.87;7.60;;;;;;;;;;5073715;28;20106;-39
2023/10/03 12:24:33;;;;;;;32.33;8.07;;;;;;;;;;5072942;28;20119;-40
2023/10/03 12:27:04;;;;;;;19.83;7.03;;;;;;;;;;5072727;28;20103;-39
2023/10/03 12:29:32;;;;;;;23.20;7.65;;;;;;;;;;5077224;28;20459;-39
2023/10/03 12:31:57;;;;;;;30.20;7.53;;;;;;;;;;5068744;28;20024;-39
2023/10/03 12:34:25;;;;;;;20.27;8.20;;;;;;;;;;5070810;28;20055;-39
2023/10/03 12:36:50;;;;;;;20.45;7.72;;;;;;;;;;5074845;28;20030;-40
2023/10/03 12:39:18;;;;;;;24.03;6.87;;;;;;;;;;5071945;28;20028;-39
2023/10/03 12:41:46;;;;;;;29.05;8.35;;;;;;;;;;5057011;28;20107;-39
2023/10/03 12:44:12;;;;;;;33.13;7.75;;;;;;;;;;5073428;28;20481;-39
2023/10/03 12:46:38;;;;;;;20.42;7.10;;;;;;;;;;5076191;28;20100;-39
2023/10/03 12:49:03;;;;;;;25.23;8.13;;;;;;;;;;5072839;28;20024;-39
2023/10/03 12:51:28;;;;;;;21.50;6.87;;;;;;;;;;5077812;28;20051;-39
2023/10/03 12:53:55;;;;;;;21.23;6.77;;;;;;;;;;5074678;28;20028;-39
2023/10/03 12:56:20;;;;;;;21.95;6.40;;;;;;;;;;5075403;28;20059;-39
2023/10/03 12:58:46;;;;;;;19.45;6.47;;;;;;;;;;5068081;28;20039;-39
2023/10/03 13:01:12;;;;;;;18.07;6.63;;;;;;;;;;5072712;28;20035;-39
2023/10/03 13:03:39;;;;;;;19.10;6.43;;;;;;;;;;5077839;28;20266;-39
2023/10/03 13:06:04;;;;;;;113.43;24.42;;;;;;;;;;5074744;28;20029;-39
2023/10/03 13:08:30;;;;;;;21.65;8.18;;;;;;;;;;5076546;28;20024;-40
2023/10/03 13:11:01;;;;;;;18.48;6.57;;;;;;;;;;5072179;28;20032;-39
2023/10/03 13:13:26;;;;;;;21.60;7.13;;;;;;;;;;5078047;28;20024;-39
2023/10/03 13:15:54;;;;;;;16.67;6.05;;;;;;;;;;5073131;28;20094;-39
2023/10/03 13:18:19;;;;;;;18.38;7.22;;;;;;;;;;5073011;28;20462;-39
2023/10/03 13:20:45;;;;;;;17.30;6.70;;;;;;;;;;5079731;28;20020;-39
2023/10/03 13:23:10;;;;;;;22.08;8.18;;;;;;;;;;5066078;28;20028;-39
2023/10/03 13:25:37;;;;;;;19.77;7.22;;;;;;;;;;5060680;28;20032;-39
2023/10/03 13:28:04;;;;;;;21.88;7.40;;;;;;;;;;5075719;28;20032;-47
2023/10/03 13:30:30;;;;;;;17.98;7.60;;;;;;;;;;5072519;28;20437;-39
2023/10/03 13:32:57;;;;;;;17.20;7.20;;;;;;;;;;5074335;28;20524;-39
2023/10/03 13:35:22;;;;;;;16.70;7.15;;;;;;;;;;5076631;28;20077;-39
2023/10/03 13:37:48;;;;;;;20.27;7.40;;;;;;;;;;5075627;28;20024;-39
2023/10/03 13:40:14;;;;;;;19.88;8.07;;;;;;;;;;5074395;28;20028;-41
2023/10/03 13:42:40;;;;;;;21.33;8.32;;;;;;;;;;5073022;28;20028;-39
2023/10/03 13:45:05;;;;;;;22.77;7.60;;;;;;;;;;5069294;28;20517;-39
2023/10/03 13:47:31;;;;;;;20.15;7.45;;;;;;;;;;5070015;28;20056;-39
2023/10/03 13:49:56;;;;;;;22.85;8.18;;;;;;;;;;5074094;28;20612;-39
2023/10/03 13:52:22;;;;;;;18.30;7.88;;;;;;;;;;5073430;28;20020;-39
2023/10/03 13:54:47;;;;;;;21.10;7.57;;;;;;;;;;5077134;28;20027;-39
2023/10/03 13:57:12;;;;;;;22.87;8.23;;;;;;;;;;5073398;28;20297;-39
2023/10/03 13:59:38;;;;;;;18.63;6.68;;;;;;;;;;5066103;28;20020;-39
2023/10/03 14:02:03;;;;;;;17.92;8.52;;;;;;;;;;5070235;28;20548;-39
2023/10/03 14:04:29;;;;;;;20.38;6.75;;;;;;;;;;5072935;28;20024;-39
2023/10/03 14:06:55;;;;;;;18.77;7.68;;;;;;;;;;5075254;28;20036;-39
2023/10/03 14:09:26;;;;;;;24.25;7.45;;;;;;;;;;5073040;28;20249;-39
2023/10/03 14:11:52;;;;;;;20.25;8.77;;;;;;;;;;5071775;28;20388;-39
2023/10/03 14:14:17;;;;;;;19.90;7.90;;;;;;;;;;5068212;28;20087;-39
2023/10/03 14:16:42;;;;;;;20.73;6.68;;;;;;;;;;5066351;28;20110;-39
2023/10/03 14:19:08;;;;;;;20.87;8.10;;;;;;;;;;5065966;28;20024;-39
2023/10/03 14:21:33;;;;;;;21.97;7.33;;;;;;;;;;5072818;28;20028;-39
2023/10/03 14:23:58;;;;;;;20.98;7.13;;;;;;;;;;5068942;28;20453;-39
2023/10/03 14:26:24;;;;;;;17.80;7.20;;;;;;;;;;5067416;28;20556;-39
2023/10/03 14:28:50;;;;;;;16.98;7.18;;;;;;;;;;5072694;28;20282;-39